createdAt,value
2023-08-31T00:01:30.816Z,81.00
2023-08-31T00:04:01.372Z,81.10
2023-08-31T00:06:32.199Z,80.80
2023-08-31T00:09:03.246Z,81.50
2023-08-31T00:11:31.623Z,81.70
2023-08-31T00:14:00.597Z,81.70
2023-08-31T00:16:31.806Z,82.40
2023-08-31T00:18:59.041Z,83.20
2023-08-31T00:21:32.091Z,83.80
2023-08-31T00:23:59.796Z,84.40
2023-08-31T00:26:27.864Z,85.20
2023-08-31T00:28:56.445Z,85.60
2023-08-31T00:31:23.608Z,85.60
2023-08-31T00:33:53.988Z,85.60
2023-08-31T00:36:25.772Z,85.40
2023-08-31T00:38:53.141Z,85.10
2023-08-31T00:41:21.830Z,84.60
2023-08-31T00:43:49.897Z,84.30
2023-08-31T00:46:29.979Z,83.80
2023-08-31T00:49:02.209Z,83.70
2023-08-31T00:51:31.925Z,83.20
2023-08-31T00:54:00.662Z,82.60
2023-08-31T00:56:29.207Z,82.50
2023-08-31T00:59:08.932Z,82.00
2023-08-31T01:01:53.954Z,81.90
2023-08-31T01:04:28.951Z,81.70
2023-08-31T01:07:18.318Z,81.90
2023-08-31T01:10:08.196Z,82.00
2023-08-31T01:12:51.251Z,81.90
2023-08-31T01:15:23.453Z,82.10
2023-08-31T01:17:55.978Z,81.90
2023-08-31T01:20:50.060Z,81.60
2023-08-31T01:23:22.313Z,81.40
2023-08-31T01:25:51.534Z,81.50
2023-08-31T01:28:27.944Z,81.40
2023-08-31T01:30:56.807Z,81.30
2023-08-31T01:33:27.052Z,80.90
2023-08-31T01:36:02.935Z,80.80
2023-08-31T01:38:30.630Z,80.80
2023-08-31T01:41:07.371Z,80.80
2023-08-31T01:43:37.571Z,81.00
2023-08-31T01:46:06.338Z,81.10
2023-08-31T01:48:52.037Z,81.00
2023-08-31T01:51:24.355Z,81.00
2023-08-31T01:53:54.543Z,80.70
2023-08-31T01:56:23.298Z,80.60
2023-08-31T01:58:53.761Z,80.50
2023-08-31T02:01:20.875Z,81.30
2023-08-31T02:03:49.277Z,81.40
2023-08-31T02:06:17.065Z,80.80
2023-08-31T02:08:48.503Z,80.30
2023-08-31T02:11:15.688Z,80.10
2023-08-31T02:13:43.662Z,80.00
2023-08-31T02:16:11.378Z,80.00
2023-08-31T02:18:41.643Z,79.90
2023-08-31T02:21:10.256Z,80.10
2023-08-31T02:23:39.053Z,80.30
2023-08-31T02:26:09.571Z,80.30
2023-08-31T02:28:38.507Z,80.10
2023-08-31T02:31:05.784Z,80.10
2023-08-31T02:33:33.419Z,80.30
2023-08-31T02:36:00.827Z,80.60
2023-08-31T02:38:28.087Z,80.80
2023-08-31T02:40:55.244Z,80.50
2023-08-31T02:43:25.090Z,80.30
2023-08-31T02:45:59.731Z,80.60
2023-08-31T02:48:29.668Z,80.90
2023-08-31T02:51:01.275Z,81.10
2023-08-31T02:53:34.802Z,80.60
2023-08-31T02:56:04.440Z,80.90
2023-08-31T02:58:33.461Z,81.30
2023-08-31T03:01:15.269Z,81.20
2023-08-31T03:03:45.027Z,81.30
2023-08-31T03:06:12.317Z,81.40
2023-08-31T03:08:41.778Z,81.60
2023-08-31T03:11:10.675Z,81.50
2023-08-31T03:13:39.699Z,81.60
2023-08-31T03:16:07.423Z,81.70
2023-08-31T03:18:35.830Z,81.60
2023-08-31T03:21:07.038Z,81.50
2023-08-31T03:23:34.248Z,81.40
2023-08-31T03:26:08.896Z,81.40
2023-08-31T03:28:39.868Z,81.10
2023-08-31T03:31:09.113Z,80.30
2023-08-31T03:33:37.729Z,80.10
2023-08-31T03:36:11.516Z,80.20
2023-08-31T03:38:39.889Z,80.50
2023-08-31T03:41:07.237Z,80.70
2023-08-31T03:43:35.334Z,80.90
2023-08-31T03:46:03.765Z,81.00
2023-08-31T03:48:33.253Z,81.20
2023-08-31T03:51:04.095Z,81.70
2023-08-31T03:53:31.583Z,82.50
2023-08-31T03:56:00.493Z,82.70
2023-08-31T03:58:28.856Z,82.40
2023-08-31T04:01:04.145Z,82.40
2023-08-31T04:03:34.144Z,82.80
2023-08-31T04:06:04.101Z,83.00
2023-08-31T04:08:32.657Z,83.50
2023-08-31T04:11:05.732Z,83.40
2023-08-31T04:13:36.279Z,83.20
2023-08-31T04:16:05.769Z,82.90
2023-08-31T04:18:36.850Z,82.60
2023-08-31T04:21:05.770Z,82.50
2023-08-31T04:23:44.976Z,82.00
2023-08-31T04:26:15.923Z,81.60
2023-08-31T04:28:44.608Z,81.00
2023-08-31T04:31:12.365Z,80.80
2023-08-31T04:33:43.535Z,80.80
2023-08-31T04:36:12.433Z,80.60
2023-08-31T04:38:46.736Z,80.70
2023-08-31T04:41:16.265Z,80.60
2023-08-31T04:43:49.370Z,80.90
2023-08-31T04:46:17.959Z,80.80
2023-08-31T04:48:45.675Z,80.60
2023-08-31T04:51:38.499Z,80.40
2023-08-31T04:54:08.188Z,80.00
2023-08-31T04:56:39.715Z,80.10
2023-08-31T04:59:07.567Z,80.30
2023-08-31T05:01:38.702Z,80.10
2023-08-31T05:04:11.600Z,80.00
2023-08-31T05:06:40.886Z,79.80
2023-08-31T05:09:09.806Z,79.60
2023-08-31T05:11:37.169Z,79.80
2023-08-31T05:14:06.660Z,79.80
2023-08-31T05:16:36.589Z,79.90
2023-08-31T05:19:05.128Z,80.00
2023-08-31T05:21:33.264Z,79.70
2023-08-31T05:24:11.187Z,79.60
2023-08-31T05:26:40.914Z,79.60
2023-08-31T05:29:08.604Z,79.20
2023-08-31T05:31:38.850Z,79.00
2023-08-31T05:34:07.268Z,78.80
2023-08-31T05:36:36.741Z,78.50
2023-08-31T05:39:07.583Z,78.40
2023-08-31T05:41:35.779Z,78.50
2023-08-31T05:44:04.669Z,78.40
2023-08-31T05:46:32.114Z,78.30
2023-08-31T05:48:59.539Z,78.30
2023-08-31T05:51:27.102Z,78.20
2023-08-31T05:53:54.626Z,78.00
2023-08-31T05:56:24.383Z,77.90
2023-08-31T05:59:03.265Z,77.80
2023-08-31T06:01:31.075Z,77.50
2023-08-31T06:03:58.445Z,77.60
2023-08-31T06:06:31.242Z,77.40
2023-08-31T06:08:59.497Z,77.10
2023-08-31T06:11:31.820Z,77.00
2023-08-31T06:14:00.134Z,76.80
2023-08-31T06:16:27.619Z,76.90
2023-08-31T06:18:56.736Z,76.90
2023-08-31T06:21:24.293Z,76.90
2023-08-31T06:23:56.164Z,76.60
2023-08-31T06:26:26.590Z,76.60
2023-08-31T06:28:59.112Z,76.20
2023-08-31T06:31:27.871Z,75.60
2023-08-31T06:33:54.967Z,75.10
2023-08-31T06:36:22.959Z,74.30
2023-08-31T06:38:50.475Z,73.60
2023-08-31T06:41:17.828Z,73.30
2023-08-31T06:43:49.511Z,72.80
2023-08-31T06:46:24.867Z,71.50
2023-08-31T06:48:52.871Z,70.60
2023-08-31T06:51:22.060Z,70.10
2023-08-31T06:53:52.291Z,70.40
2023-08-31T06:56:20.010Z,70.30
2023-08-31T06:58:47.973Z,70.20
2023-08-31T07:01:18.447Z,69.60
2023-08-31T07:03:48.240Z,68.90
2023-08-31T07:06:15.847Z,68.60
2023-08-31T07:08:47.276Z,68.50
2023-08-31T07:11:17.969Z,68.30
2023-08-31T07:13:47.747Z,68.70
2023-08-31T07:16:16.913Z,68.00
2023-08-31T07:18:45.477Z,67.30
2023-08-31T07:21:14.594Z,67.60
2023-08-31T07:23:47.721Z,67.90
2023-08-31T07:26:18.188Z,68.20
2023-08-31T07:28:48.530Z,67.30
2023-08-31T07:31:17.964Z,67.50
2023-08-31T07:33:45.869Z,68.20
2023-08-31T07:36:13.090Z,68.20
2023-08-31T07:38:40.798Z,68.10
2023-08-31T07:41:09.676Z,68.40
2023-08-31T07:43:51.202Z,68.60
2023-08-31T07:46:26.120Z,68.50
2023-08-31T07:48:59.589Z,67.70
2023-08-31T07:51:45.846Z,67.50
2023-08-31T07:54:20.766Z,67.20
2023-08-31T07:56:50.060Z,67.10
2023-08-31T07:59:19.589Z,66.70
2023-08-31T08:01:49.799Z,65.80
2023-08-31T08:04:23.092Z,65.20
2023-08-31T08:06:52.158Z,63.80
2023-08-31T08:09:21.773Z,62.90
2023-08-31T08:11:51.810Z,62.10
2023-08-31T08:14:19.968Z,61.20
2023-08-31T08:16:49.740Z,60.90
2023-08-31T08:19:25.301Z,61.20
2023-08-31T08:21:54.109Z,62.50
2023-08-31T08:24:26.708Z,62.80
2023-08-31T08:26:55.958Z,63.50
2023-08-31T08:29:26.279Z,62.40
2023-08-31T08:31:53.913Z,62.60
2023-08-31T08:34:22.079Z,62.80
2023-08-31T08:36:53.325Z,62.40
2023-08-31T08:39:23.539Z,62.10
2023-08-31T08:41:50.709Z,61.80
2023-08-31T08:44:19.089Z,61.90
2023-08-31T08:46:46.855Z,61.10
2023-08-31T08:49:16.111Z,60.80
2023-08-31T08:51:51.088Z,60.50
2023-08-31T08:54:23.253Z,60.60
2023-08-31T08:56:56.833Z,60.80
2023-08-31T08:59:25.952Z,60.90
2023-08-31T09:02:00.481Z,61.20
2023-08-31T09:04:33.334Z,61.60
2023-08-31T09:07:02.020Z,59.20
2023-08-31T09:09:33.889Z,57.70
2023-08-31T09:12:12.559Z,57.80
2023-08-31T09:14:42.698Z,56.10
2023-08-31T09:17:10.012Z,50.30
2023-08-31T09:19:40.091Z,48.60
2023-08-31T09:22:26.226Z,48.80
2023-08-31T09:24:54.698Z,49.10
2023-08-31T09:27:27.917Z,50.80
2023-08-31T09:29:58.410Z,51.30
2023-08-31T09:32:27.905Z,51.70
2023-08-31T09:35:10.625Z,51.20
2023-08-31T09:37:44.994Z,51.70
2023-08-31T09:40:20.046Z,52.50
2023-08-31T09:42:52.045Z,52.50
2023-08-31T09:45:45.727Z,52.10
2023-08-31T09:48:17.137Z,52.70
2023-08-31T09:50:48.953Z,52.80
2023-08-31T09:54:20.163Z,51.80
2023-08-31T09:56:52.495Z,48.00
2023-08-31T09:59:29.093Z,46.80
2023-08-31T10:01:59.662Z,47.30
2023-08-31T10:04:28.088Z,46.80
2023-08-31T10:07:20.845Z,46.20
2023-08-31T10:09:51.907Z,45.70
2023-08-31T10:12:25.128Z,44.70
2023-08-31T10:14:55.023Z,44.10
2023-08-31T10:17:23.966Z,43.60
2023-08-31T10:19:52.117Z,42.30
2023-08-31T10:23:07.904Z,42.10
2023-08-31T10:25:47.754Z,42.60
2023-08-31T10:31:39.639Z,42.40
2023-08-31T10:34:12.802Z,42.00
2023-08-31T10:36:53.323Z,41.80
2023-08-31T10:39:26.725Z,42.10
2023-08-31T10:41:59.622Z,41.50
2023-08-31T10:44:39.617Z,40.90
2023-08-31T10:50:00.188Z,41.90
2023-08-31T11:02:13.933Z,40.60
2023-08-31T11:05:12.394Z,40.70
2023-08-31T11:11:06.497Z,40.50
2023-08-31T11:13:42.036Z,40.80
2023-08-31T11:16:14.061Z,40.90
2023-08-31T11:18:45.361Z,41.00
2023-08-31T11:21:17.703Z,40.50
2023-08-31T11:23:46.159Z,40.00
2023-08-31T11:26:17.812Z,39.00
2023-08-31T11:28:50.648Z,39.20
2023-08-31T11:31:26.226Z,39.70
2023-08-31T11:33:57.388Z,40.20
2023-08-31T11:36:26.645Z,39.20
2023-08-31T11:38:54.035Z,40.20
2023-08-31T11:41:23.290Z,40.60
2023-08-31T11:43:51.483Z,41.10
2023-08-31T11:46:29.069Z,42.40
2023-08-31T11:51:51.953Z,42.80
2023-08-31T11:54:47.690Z,43.70
2023-08-31T11:57:20.317Z,44.50
2023-08-31T12:02:37.600Z,44.80
2023-08-31T12:05:07.735Z,44.70
2023-08-31T12:08:21.630Z,44.80
2023-08-31T12:10:54.539Z,44.50
2023-08-31T12:13:32.630Z,44.70
2023-08-31T12:16:03.837Z,44.40
2023-08-31T12:21:37.492Z,41.30
2023-08-31T12:28:02.412Z,40.20
2023-08-31T12:30:39.050Z,40.00
2023-08-31T12:36:56.391Z,40.80
2023-08-31T12:40:01.767Z,42.20
2023-08-31T12:42:34.982Z,42.40
2023-08-31T12:45:09.162Z,41.90
2023-08-31T12:47:48.929Z,42.10
2023-08-31T13:00:01.310Z,39.50
2023-08-31T13:20:02.528Z,46.60
2023-08-31T13:22:44.161Z,47.70
2023-08-31T13:25:14.297Z,48.50
2023-08-31T13:27:43.912Z,48.90
2023-08-31T13:39:58.217Z,52.90
2023-08-31T14:17:40.001Z,57.30
2023-08-31T14:33:17.446Z,57.80
2023-08-31T14:44:52.675Z,57.30
2023-08-31T14:47:24.470Z,56.70
2023-08-31T14:49:54.290Z,55.40
2023-08-31T14:52:21.621Z,55.10
2023-08-31T14:54:50.368Z,54.90
2023-08-31T14:57:19.040Z,53.70
2023-08-31T14:59:48.784Z,53.60
2023-08-31T15:02:30.287Z,54.00
2023-08-31T15:04:57.741Z,53.50
2023-08-31T15:07:27.087Z,53.60
2023-08-31T15:09:57.123Z,53.70
2023-08-31T15:15:46.773Z,54.10
2023-08-31T15:18:24.084Z,53.60
2023-08-31T15:20:54.411Z,53.40
2023-08-31T15:23:28.598Z,53.50
2023-08-31T15:26:21.459Z,53.90
2023-08-31T15:28:56.221Z,55.10
2023-08-31T15:31:35.973Z,55.00
2023-08-31T15:34:09.330Z,55.50
2023-08-31T15:40:27.526Z,56.20
2023-08-31T15:43:04.376Z,55.70
2023-08-31T15:45:39.033Z,55.60
2023-08-31T15:48:31.496Z,55.40
2023-08-31T15:51:17.351Z,55.70
2023-08-31T15:53:49.437Z,55.80
2023-08-31T15:56:33.891Z,55.20
2023-08-31T15:59:17.715Z,55.90
2023-08-31T16:02:01.438Z,56.30
2023-08-31T16:04:44.086Z,56.70
2023-08-31T16:07:23.200Z,57.00
2023-08-31T16:10:04.580Z,57.20
2023-08-31T16:12:40.453Z,57.50
2023-08-31T16:15:51.808Z,57.60
2023-08-31T16:18:32.513Z,57.90
2023-08-31T16:21:07.921Z,58.10
2023-08-31T16:23:45.070Z,58.00
2023-08-31T16:26:15.224Z,58.10
2023-08-31T16:28:55.183Z,58.20
2023-08-31T16:31:36.438Z,58.60
2023-08-31T16:34:19.686Z,58.90
2023-08-31T16:36:58.803Z,59.10
2023-08-31T16:39:27.178Z,59.50
2023-08-31T16:41:56.148Z,59.60
2023-08-31T16:44:30.038Z,59.70
2023-08-31T16:47:06.039Z,60.00
2023-08-31T16:49:42.938Z,60.30
2023-08-31T16:55:13.280Z,61.00
2023-08-31T16:58:10.872Z,61.40
2023-08-31T17:00:44.373Z,61.60
2023-08-31T17:03:13.472Z,62.10
2023-08-31T17:05:49.401Z,62.30
2023-08-31T17:08:25.420Z,62.40
2023-08-31T17:10:56.246Z,62.70
2023-08-31T17:13:27.252Z,63.10
2023-08-31T17:16:17.689Z,63.60
2023-08-31T17:18:48.643Z,63.90
2023-08-31T17:21:20.667Z,64.20
2023-08-31T17:23:52.451Z,64.80
2023-08-31T17:29:46.292Z,64.70
2023-08-31T17:32:23.688Z,64.70
2023-08-31T17:34:52.806Z,65.00
2023-08-31T17:37:27.004Z,64.80
2023-08-31T17:40:09.194Z,65.10
2023-08-31T17:42:46.393Z,65.50
2023-08-31T17:45:22.532Z,65.70
2023-08-31T17:48:04.083Z,65.50
2023-08-31T17:50:35.852Z,65.60
2023-08-31T17:53:03.996Z,65.30
2023-08-31T17:55:34.163Z,65.20
2023-08-31T17:58:03.622Z,65.10
2023-08-31T18:00:31.317Z,65.00
2023-08-31T18:03:05.128Z,64.80
2023-08-31T18:05:35.154Z,64.50
2023-08-31T18:08:24.476Z,64.40
2023-08-31T18:11:00.412Z,64.40
2023-08-31T18:13:37.287Z,64.20
2023-08-31T18:16:08.014Z,64.10
2023-08-31T18:18:39.027Z,64.10
2023-08-31T18:21:08.420Z,64.50
2023-08-31T18:23:40.068Z,64.80
2023-08-31T18:26:13.531Z,65.00
2023-08-31T18:28:42.180Z,65.50
2023-08-31T18:33:53.662Z,66.30
2023-08-31T18:36:21.121Z,66.70
2023-08-31T18:38:49.659Z,67.00
2023-08-31T18:41:21.672Z,67.10
2023-08-31T18:43:50.132Z,67.10
2023-08-31T18:51:56.751Z,67.70
2023-08-31T18:57:23.939Z,68.00
2023-08-31T18:59:54.131Z,68.00
2023-08-31T19:02:22.632Z,67.90
2023-08-31T19:04:55.732Z,68.30
2023-08-31T19:07:25.499Z,68.80
2023-08-31T19:10:07.428Z,69.40
2023-08-31T19:12:38.525Z,70.00
2023-08-31T19:15:09.130Z,70.40
2023-08-31T19:17:43.084Z,70.60
2023-08-31T19:20:24.423Z,70.70
2023-08-31T19:22:53.689Z,70.80
2023-08-31T19:25:30.770Z,70.90
2023-08-31T19:30:51.350Z,70.60
2023-08-31T19:36:10.554Z,70.90
2023-08-31T19:38:40.193Z,71.20
2023-08-31T19:41:08.658Z,71.30
2023-08-31T19:43:39.772Z,71.50
2023-08-31T19:46:14.850Z,71.40
2023-08-31T19:48:43.488Z,71.30
2023-08-31T19:51:13.959Z,71.60
2023-08-31T19:53:46.070Z,71.90
2023-08-31T19:56:32.600Z,72.10
2023-08-31T19:59:14.492Z,72.20
2023-08-31T20:01:43.010Z,72.40
2023-08-31T20:04:16.173Z,72.60
2023-08-31T20:06:43.874Z,72.70
2023-08-31T20:09:17.931Z,72.70
2023-08-31T20:11:45.755Z,72.20
2023-08-31T20:14:18.117Z,71.90
2023-08-31T20:16:50.558Z,72.00
2023-08-31T20:19:30.000Z,72.10
2023-08-31T20:21:58.876Z,72.30
2023-08-31T20:24:38.955Z,72.50
2023-08-31T20:29:59.465Z,73.10
2023-08-31T20:35:32.759Z,73.70
2023-08-31T20:38:07.568Z,73.50
2023-08-31T20:43:28.978Z,73.70
2023-08-31T20:54:32.380Z,73.90
2023-08-31T20:56:59.745Z,74.10
2023-08-31T20:59:30.047Z,73.90
2023-08-31T21:04:48.685Z,73.90
2023-08-31T21:07:18.105Z,73.70
2023-08-31T21:09:48.610Z,73.30
2023-08-31T21:15:11.181Z,74.00
2023-08-31T21:17:40.147Z,74.10
2023-08-31T21:20:09.336Z,74.20
2023-08-31T21:22:37.229Z,74.50
2023-08-31T21:25:28.106Z,74.50
2023-08-31T21:28:01.140Z,74.40
2023-08-31T21:30:29.937Z,74.30
2023-08-31T21:32:57.913Z,74.50
2023-08-31T21:35:26.273Z,74.50
2023-08-31T21:37:57.108Z,74.50
2023-08-31T21:40:35.462Z,74.40
2023-08-31T21:43:06.431Z,74.40
2023-08-31T21:45:41.720Z,74.70
2023-08-31T21:48:18.138Z,74.80
2023-08-31T21:50:45.750Z,74.70
2023-08-31T21:53:14.343Z,74.80
2023-08-31T21:55:43.330Z,75.10
2023-08-31T21:58:15.711Z,74.70
2023-08-31T22:00:43.970Z,74.60
2023-08-31T22:03:18.197Z,75.20
2023-08-31T22:05:46.767Z,75.50
2023-08-31T22:08:16.063Z,75.70
2023-08-31T22:10:59.133Z,75.80
2023-08-31T22:13:31.037Z,76.00
2023-08-31T22:16:01.325Z,76.00
2023-08-31T22:18:31.710Z,76.10
2023-08-31T22:21:02.654Z,76.10
2023-08-31T22:23:51.822Z,76.80
2023-08-31T22:26:21.192Z,76.90
2023-08-31T22:28:49.808Z,76.50
2023-08-31T22:31:23.307Z,76.60
2023-08-31T22:36:43.020Z,76.50
2023-08-31T22:39:20.348Z,76.60
2023-08-31T22:41:55.239Z,77.00
2023-08-31T22:47:06.935Z,76.80
2023-08-31T22:49:36.666Z,76.80
2023-08-31T22:52:06.547Z,76.80
2023-08-31T22:54:34.330Z,77.00
2023-08-31T22:57:07.951Z,77.20
2023-08-31T22:59:40.462Z,77.20
2023-08-31T23:02:10.599Z,77.30
2023-08-31T23:04:40.906Z,77.20
2023-08-31T23:07:16.208Z,77.30
2023-08-31T23:09:44.217Z,77.20
2023-08-31T23:12:15.966Z,77.30
2023-08-31T23:15:06.997Z,77.20
2023-08-31T23:17:38.219Z,77.20
2023-08-31T23:20:11.443Z,77.40
2023-08-31T23:22:40.153Z,77.30
2023-08-31T23:25:14.449Z,77.40
2023-08-31T23:27:42.383Z,77.30
2023-08-31T23:30:12.549Z,77.20
2023-08-31T23:32:53.450Z,77.20
2023-08-31T23:35:21.018Z,77.60
2023-08-31T23:37:53.168Z,77.60
2023-08-31T23:40:23.813Z,77.80
2023-08-31T23:42:53.518Z,77.90
2023-08-31T23:45:21.674Z,78.00
2023-08-31T23:47:51.423Z,78.00
2023-08-31T23:50:22.427Z,77.90
2023-08-31T23:52:59.824Z,77.80
2023-08-31T23:55:27.266Z,77.90
2023-08-31T23:58:07.309Z,78.10
